createdAt,value
2022-09-05T00:00:11.622Z,16.19
2022-09-05T00:03:01.452Z,16.11
2022-09-05T00:05:50.997Z,16.01
2022-09-05T00:08:50.969Z,15.95
2022-09-05T00:11:42.401Z,15.82
2022-09-05T00:14:53.182Z,15.75
2022-09-05T00:18:00.239Z,15.69
2022-09-05T00:24:25.693Z,15.69
2022-09-05T00:24:35.631Z,15.60
2022-09-05T00:26:29.483Z,15.53
2022-09-05T00:29:12.885Z,15.47
2022-09-05T00:31:59.277Z,15.41
2022-09-05T00:34:54.065Z,15.35
2022-09-05T00:37:34.593Z,15.33
2022-09-05T00:40:25.793Z,15.18
2022-09-05T00:42:59.372Z,15.16
2022-09-05T00:45:37.295Z,15.08
2022-09-05T00:48:29.848Z,15.07
2022-09-05T00:51:08.908Z,15.02
2022-09-05T00:53:50.624Z,14.95
2022-09-05T00:56:40.729Z,14.91
2022-09-05T00:59:58.931Z,14.90
2022-09-05T01:02:52.100Z,14.89
2022-09-05T01:05:36.896Z,14.90
2022-09-05T01:08:23.476Z,14.89
2022-09-05T01:11:03.376Z,14.77
2022-09-05T01:13:41.966Z,14.75
2022-09-05T01:16:22.301Z,14.73
2022-09-05T01:19:05.476Z,14.73
2022-09-05T01:21:54.980Z,14.84
2022-09-05T01:24:54.431Z,14.81
2022-09-05T01:28:36.998Z,14.81
2022-09-05T01:30:49.549Z,14.71
2022-09-05T01:33:31.100Z,14.74
2022-09-05T01:36:29.864Z,14.82
2022-09-05T01:40:14.698Z,14.82
2022-09-05T01:42:00.443Z,14.85
2022-09-05T01:44:55.422Z,14.83
2022-09-05T01:47:38.050Z,14.86
2022-09-05T01:50:21.658Z,14.84
2022-09-05T01:53:15.493Z,14.81
2022-09-05T01:56:04.736Z,14.83
2022-09-05T01:58:52.560Z,14.85
2022-09-05T02:01:33.463Z,14.93
2022-09-05T02:04:34.928Z,14.96
2022-09-05T02:07:19.967Z,15.06
2022-09-05T02:10:30.416Z,14.98
2022-09-05T02:13:04.855Z,15.06
2022-09-05T02:15:59.742Z,15.01
2022-09-05T02:18:47.859Z,15.06
2022-09-05T02:21:24.989Z,15.07
2022-09-05T02:24:06.221Z,15.12
2022-09-05T02:26:43.723Z,15.18
2022-09-05T02:29:28.803Z,15.07
2022-09-05T02:32:09.807Z,15.04
2022-09-05T02:34:46.155Z,15.08
2022-09-05T02:38:07.595Z,15.11
2022-09-05T02:45:09.420Z,15.13
2022-09-05T02:45:16.330Z,15.04
2022-09-05T02:46:13.490Z,15.06
2022-09-05T02:48:55.172Z,15.07
2022-09-05T02:57:23.869Z,15.02
2022-09-05T02:57:40.794Z,15.17
2022-09-05T02:58:07.008Z,15.11
2022-09-05T03:00:34.440Z,15.09
2022-09-05T03:03:20.382Z,15.04
2022-09-05T03:05:58.025Z,15.38
2022-09-05T03:09:16.843Z,15.21
2022-09-05T03:12:28.890Z,15.17
2022-09-05T03:15:24.379Z,15.27
2022-09-05T03:18:19.912Z,15.20
2022-09-05T03:21:41.454Z,15.37
2022-09-05T03:24:55.615Z,15.24
2022-09-05T03:27:49.488Z,15.28
2022-09-05T03:30:22.227Z,15.28
2022-09-05T03:33:40.258Z,15.31
2022-09-05T03:36:57.980Z,15.32
2022-09-05T03:40:02.034Z,15.24
2022-09-05T03:43:03.346Z,15.31
2022-09-05T03:46:01.122Z,15.20
2022-09-05T03:49:07.129Z,15.16
2022-09-05T03:57:05.881Z,15.22
2022-09-05T03:57:10.481Z,15.19
2022-09-05T03:58:55.967Z,15.22
2022-09-05T04:03:05.771Z,15.37
2022-09-05T04:08:15.900Z,15.28
2022-09-05T04:08:16.280Z,15.16
2022-09-05T04:10:31.280Z,15.13
2022-09-05T04:13:06.673Z,15.00
2022-09-05T04:15:41.856Z,15.16
2022-09-05T04:18:33.562Z,15.16
2022-09-05T04:21:09.323Z,15.14
2022-09-05T04:24:01.090Z,15.08
2022-09-05T04:26:51.336Z,15.16
2022-09-05T04:29:31.901Z,15.08
2022-09-05T04:32:18.874Z,15.03
2022-09-05T04:35:22.162Z,15.09
2022-09-05T04:37:59.386Z,15.10
2022-09-05T04:40:41.098Z,15.08
2022-09-05T04:43:16.247Z,15.20
2022-09-05T04:45:51.047Z,15.31
2022-09-05T04:48:25.362Z,15.30
2022-09-05T04:51:13.170Z,15.28
2022-09-05T04:54:23.144Z,15.36
2022-09-05T04:57:13.711Z,15.34
2022-09-05T05:04:57.462Z,15.34
2022-09-05T05:06:13.504Z,15.47
2022-09-05T05:06:16.462Z,15.37
2022-09-05T05:08:48.883Z,15.27
2022-09-05T05:17:10.898Z,15.27
2022-09-05T05:18:03.938Z,15.32
2022-09-05T05:18:10.722Z,15.34
2022-09-05T05:20:41.212Z,15.38
2022-09-05T05:23:09.228Z,15.41
2022-09-05T05:25:50.599Z,15.50
2022-09-05T05:28:28.637Z,15.60
2022-09-05T05:31:10.291Z,15.65
2022-09-05T05:33:43.233Z,15.73
2022-09-05T05:36:22.855Z,15.82
2022-09-05T05:39:00.125Z,15.94
2022-09-05T05:41:37.487Z,16.03
2022-09-05T05:44:14.270Z,16.20
2022-09-05T05:46:48.539Z,16.21
2022-09-05T05:49:40.840Z,16.28
2022-09-05T05:52:43.047Z,16.30
2022-09-05T05:55:52.796Z,16.37
2022-09-05T05:58:47.181Z,16.33
2022-09-05T06:02:01.756Z,16.45
2022-09-05T06:05:09.900Z,16.40
2022-09-05T06:09:18.428Z,16.54
2022-09-05T06:14:58.422Z,16.47
2022-09-05T06:15:09.131Z,16.62
2022-09-05T06:18:11.542Z,16.63
2022-09-05T06:22:11.422Z,16.76
2022-09-05T06:24:39.773Z,16.78
2022-09-05T06:28:17.888Z,16.78
2022-09-05T06:30:44.198Z,16.93
2022-09-05T06:33:28.295Z,16.96
2022-09-05T06:36:16.606Z,16.96
2022-09-05T06:39:02.960Z,16.97
2022-09-05T06:41:42.238Z,17.08
2022-09-05T06:44:47.274Z,17.08
2022-09-05T06:47:33.704Z,17.23
2022-09-05T06:50:27.209Z,17.31
2022-09-05T06:53:35.922Z,17.34
2022-09-05T06:56:25.933Z,17.39
2022-09-05T06:59:38.948Z,17.72
2022-09-05T07:02:58.078Z,17.80
2022-09-05T07:05:40.091Z,17.93
2022-09-05T07:08:35.298Z,17.87
2022-09-05T07:11:16.083Z,18.04
2022-09-05T07:13:57.597Z,18.33
2022-09-05T07:16:47.558Z,18.42
2022-09-05T07:19:26.635Z,18.37
2022-09-05T07:22:46.400Z,18.02
2022-09-05T07:25:18.306Z,18.03
2022-09-05T07:28:29.834Z,17.91
2022-09-05T07:30:50.693Z,17.91
2022-09-05T07:33:23.089Z,18.03
2022-09-05T07:35:53.253Z,18.10
2022-09-05T07:38:26.776Z,18.05
2022-09-05T07:41:22.643Z,18.21
2022-09-05T07:43:58.792Z,18.33
2022-09-05T07:46:32.363Z,18.28
2022-09-05T07:49:05.029Z,18.59
2022-09-05T07:56:56.830Z,18.77
2022-09-05T07:57:01.480Z,19.02
2022-09-05T07:57:31.665Z,19.25
2022-09-05T08:00:25.564Z,19.36
2022-09-05T08:02:58.721Z,19.42
2022-09-05T08:05:35.101Z,19.66
2022-09-05T08:08:09.681Z,19.75
2022-09-05T08:11:21.937Z,19.42
2022-09-05T08:14:40.585Z,19.63
2022-09-05T08:16:48.632Z,20.19
2022-09-05T08:19:39.994Z,19.60
2022-09-05T08:22:14.746Z,19.76
2022-09-05T08:24:53.806Z,19.85
2022-09-05T08:27:29.659Z,20.16
2022-09-05T08:30:26.945Z,20.68
2022-09-05T08:33:11.453Z,21.26
2022-09-05T08:35:45.553Z,20.80
2022-09-05T08:38:15.896Z,20.53
2022-09-05T08:40:52.431Z,20.48
2022-09-05T08:44:59.540Z,20.22
2022-09-05T08:46:42.506Z,20.55
2022-09-05T08:49:45.550Z,20.66
2022-09-05T08:52:26.096Z,20.67
2022-09-05T08:55:07.473Z,21.08
2022-09-05T08:57:57.434Z,21.15
2022-09-05T09:00:31.418Z,20.69
2022-09-05T09:03:20.489Z,21.21
2022-09-05T09:06:17.105Z,21.51
2022-09-05T09:09:06.009Z,21.46
2022-09-05T09:11:38.263Z,21.51
2022-09-05T09:14:46.210Z,22.01
2022-09-05T09:17:41.517Z,22.32
2022-09-05T09:20:29.328Z,21.47
2022-09-05T09:23:05.786Z,22.50
2022-09-05T09:25:42.511Z,22.26
2022-09-05T09:28:50.297Z,22.42
2022-09-05T09:31:33.049Z,23.46
2022-09-05T09:34:29.450Z,22.82
2022-09-05T09:37:50.570Z,22.11
2022-09-05T09:40:52.374Z,22.25
2022-09-05T09:43:52.566Z,23.14
2022-09-05T09:46:30.908Z,23.02
2022-09-05T09:49:22.778Z,22.50
2022-09-05T09:52:22.437Z,22.62
2022-09-05T09:55:23.552Z,22.15
2022-09-05T09:58:15.744Z,22.18
2022-09-05T10:00:52.523Z,21.63
2022-09-05T10:06:45.329Z,22.09
2022-09-05T10:10:52.850Z,22.74
2022-09-05T10:10:53.339Z,22.12
2022-09-05T10:13:28.709Z,22.35
2022-09-05T10:16:41.565Z,23.49
2022-09-05T10:22:43.908Z,22.84
2022-09-05T10:25:34.446Z,24.07
2022-09-05T10:28:15.018Z,23.89
2022-09-05T10:32:36.077Z,23.53
2022-09-05T10:35:16.996Z,23.66
2022-09-05T10:36:31.701Z,23.38
2022-09-05T10:39:18.873Z,24.20
2022-09-05T10:41:56.736Z,24.36
2022-09-05T10:44:40.437Z,23.48
2022-09-05T10:47:24.710Z,23.62
2022-09-05T10:50:07.826Z,23.24
2022-09-05T10:52:41.514Z,22.58
2022-09-05T10:55:19.630Z,23.25
2022-09-05T10:58:01.956Z,23.94
2022-09-05T11:02:20.740Z,24.93
2022-09-05T11:03:50.251Z,24.56
2022-09-05T11:06:25.150Z,23.99
2022-09-05T11:09:06.617Z,24.16
2022-09-05T11:11:45.970Z,24.02
2022-09-05T11:14:36.135Z,23.35
2022-09-05T11:17:15.294Z,23.87
2022-09-05T11:19:52.847Z,23.52
2022-09-05T11:22:25.600Z,23.42
2022-09-05T11:24:57.237Z,23.47
2022-09-05T11:27:32.855Z,23.27
2022-09-05T11:30:06.940Z,23.02
2022-09-05T11:39:45.900Z,23.07
2022-09-05T11:40:02.704Z,23.45
2022-09-05T11:40:07.144Z,25.48
2022-09-05T11:42:37.248Z,24.06
2022-09-05T11:45:38.048Z,24.73
2022-09-05T11:48:36.998Z,25.62
2022-09-05T11:51:34.956Z,25.23
2022-09-05T11:54:46.659Z,25.25
2022-09-05T11:57:38.722Z,24.80
2022-09-05T12:00:32.042Z,25.43
2022-09-05T12:03:59.480Z,24.28
2022-09-05T12:06:56.327Z,24.19
2022-09-05T12:09:42.730Z,23.65
2022-09-05T12:12:38.544Z,23.23
2022-09-05T12:15:27.275Z,22.95
2022-09-05T12:18:19.472Z,22.68
2022-09-05T12:21:19.426Z,22.86
2022-09-05T12:24:54.947Z,22.45
2022-09-05T12:27:39.240Z,22.52
2022-09-05T12:29:51.206Z,22.34
2022-09-05T12:34:57.318Z,22.43
2022-09-05T12:36:12.714Z,22.39
2022-09-05T12:40:55.286Z,22.46
2022-09-05T12:42:10.083Z,22.49
2022-09-05T12:44:44.823Z,22.68
2022-09-05T12:47:22.310Z,23.13
2022-09-05T12:50:03.412Z,23.17
2022-09-05T12:52:46.513Z,22.92
2022-09-05T12:55:26.628Z,23.29
2022-09-05T13:02:56.973Z,23.15
2022-09-05T13:03:07.997Z,23.57
2022-09-05T13:04:16.165Z,23.68
2022-09-05T13:06:43.556Z,23.29
2022-09-05T13:09:30.785Z,23.33
2022-09-05T13:14:48.965Z,23.70
2022-09-05T13:15:22.424Z,23.43
2022-09-05T13:18:00.259Z,23.61
2022-09-05T13:20:36.832Z,23.68
2022-09-05T13:23:17.712Z,23.54
2022-09-05T13:25:58.510Z,23.44
2022-09-05T13:28:35.232Z,23.38
2022-09-05T13:35:30.061Z,23.36
2022-09-05T13:38:03.701Z,23.54
2022-09-05T13:38:10.676Z,23.18
2022-09-05T13:39:51.751Z,23.22
2022-09-05T13:42:23.261Z,23.05
2022-09-05T13:44:57.358Z,23.24
2022-09-05T13:47:50.903Z,23.34
2022-09-05T13:50:26.173Z,23.27
2022-09-05T13:53:04.803Z,23.54
2022-09-05T13:55:44.043Z,23.33
2022-09-05T13:58:21.470Z,23.18
2022-09-05T14:01:26.836Z,23.12
2022-09-05T14:08:17.929Z,23.07
2022-09-05T14:11:20.101Z,23.10
2022-09-05T14:14:11.464Z,23.01
2022-09-05T14:16:53.704Z,23.05
2022-09-05T14:19:44.025Z,23.13
2022-09-05T14:22:22.226Z,22.99
2022-09-05T14:24:58.232Z,22.90
2022-09-05T14:27:32.178Z,22.78
2022-09-05T14:30:59.371Z,22.72
2022-09-05T14:37:35.294Z,22.79
2022-09-05T14:37:43.862Z,22.66
2022-09-05T14:39:22.858Z,22.66
2022-09-05T14:42:21.274Z,22.53
2022-09-05T14:45:31.519Z,22.59
2022-09-05T14:48:30.445Z,22.52
2022-09-05T14:51:25.223Z,22.47
2022-09-05T14:54:02.162Z,22.53
2022-09-05T14:58:55.318Z,22.43
2022-09-05T15:02:41.402Z,22.44
2022-09-05T15:02:52.607Z,22.32
2022-09-05T15:05:35.319Z,22.43
2022-09-05T15:08:38.182Z,22.38
2022-09-05T15:12:14.224Z,22.28
2022-09-05T15:13:57.333Z,22.35
2022-09-05T15:16:28.113Z,22.39
2022-09-05T15:18:58.382Z,22.37
2022-09-05T15:21:34.084Z,22.31
2022-09-05T15:24:17.044Z,22.24
2022-09-05T15:26:52.877Z,22.22
2022-09-05T15:29:25.569Z,22.20
2022-09-05T15:32:14.447Z,22.09
2022-09-05T15:34:43.520Z,22.02
2022-09-05T15:37:36.696Z,21.93
2022-09-05T15:40:23.297Z,21.87
2022-09-05T15:42:56.574Z,21.83
2022-09-05T15:45:29.006Z,21.68
2022-09-05T15:48:15.987Z,21.67
2022-09-05T15:50:51.037Z,21.70
2022-09-05T15:53:26.566Z,21.54
2022-09-05T15:56:04.885Z,21.47
2022-09-05T15:58:52.073Z,21.40
2022-09-05T16:01:31.215Z,21.41
2022-09-05T16:08:34.159Z,21.33
2022-09-05T16:10:34.786Z,21.29
2022-09-05T16:10:47.207Z,21.22
2022-09-05T16:13:13.852Z,21.23
2022-09-05T16:19:38.971Z,21.15
2022-09-05T16:23:31.776Z,20.98
2022-09-05T16:23:32.905Z,21.13
2022-09-05T16:24:58.182Z,20.99
2022-09-05T16:27:22.934Z,20.98
2022-09-05T16:29:52.165Z,20.96
2022-09-05T16:32:27.379Z,20.92
2022-09-05T16:35:00.161Z,20.82
2022-09-05T16:37:40.110Z,20.83
2022-09-05T16:40:15.504Z,20.79
2022-09-05T16:42:50.695Z,20.81
2022-09-05T16:45:32.196Z,20.80
2022-09-05T16:48:11.439Z,20.77
2022-09-05T16:50:50.420Z,20.76
2022-09-05T16:53:34.279Z,20.68
2022-09-05T16:56:08.869Z,20.72
2022-09-05T16:58:44.630Z,20.61
2022-09-05T17:01:41.171Z,20.65
2022-09-05T17:04:17.148Z,20.55
2022-09-05T17:06:55.915Z,20.55
2022-09-05T17:09:28.947Z,20.55
2022-09-05T17:12:02.242Z,20.48
2022-09-05T17:14:37.942Z,20.49
2022-09-05T17:17:43.962Z,20.57
2022-09-05T17:20:14.465Z,20.47
2022-09-05T17:25:14.031Z,20.48
2022-09-05T17:29:32.751Z,20.45
2022-09-05T17:29:34.488Z,20.44
2022-09-05T17:31:57.559Z,20.33
2022-09-05T17:34:50.277Z,20.28
2022-09-05T17:37:44.511Z,20.26
2022-09-05T17:40:59.457Z,20.18
2022-09-05T17:43:33.091Z,20.13
2022-09-05T17:46:18.528Z,20.10
2022-09-05T17:49:40.403Z,20.02
2022-09-05T17:52:24.045Z,19.97
2022-09-05T17:54:55.284Z,19.98
2022-09-05T17:57:51.264Z,19.93
2022-09-05T18:04:18.002Z,19.85
2022-09-05T18:06:59.450Z,19.76
2022-09-05T18:10:11.918Z,19.75
2022-09-05T18:13:14.329Z,19.77
2022-09-05T18:19:33.242Z,19.66
2022-09-05T18:22:13.118Z,19.62
2022-09-05T18:24:46.769Z,19.61
2022-09-05T18:28:03.333Z,19.49
2022-09-05T18:30:26.133Z,19.54
2022-09-05T18:33:55.029Z,19.45
2022-09-05T18:36:40.020Z,19.38
2022-09-05T18:39:45.043Z,19.46
2022-09-05T18:42:33.666Z,19.37
2022-09-05T18:45:14.746Z,19.29
2022-09-05T18:47:53.107Z,19.26
2022-09-05T18:50:32.514Z,19.22
2022-09-05T18:53:10.039Z,19.19
2022-09-05T18:56:12.182Z,19.10
2022-09-05T18:58:52.389Z,19.09
2022-09-05T19:01:28.503Z,19.12
2022-09-05T19:04:02.771Z,19.12
2022-09-05T19:06:37.943Z,18.95
2022-09-05T19:09:11.053Z,18.97
2022-09-05T19:11:54.703Z,19.10
2022-09-05T19:14:44.037Z,19.08
2022-09-05T19:17:21.998Z,18.97
2022-09-05T19:20:33.001Z,18.80
2022-09-05T19:23:09.940Z,18.79
2022-09-05T19:25:43.655Z,18.79
2022-09-05T19:33:11.330Z,18.74
2022-09-05T19:36:45.353Z,18.66
2022-09-05T19:37:03.435Z,18.70
2022-09-05T19:37:22.638Z,18.62
2022-09-05T19:42:20.017Z,18.55
2022-09-05T19:47:34.474Z,18.64
2022-09-05T19:47:37.850Z,18.58
2022-09-05T19:48:28.133Z,18.69
2022-09-05T19:50:58.860Z,18.72
2022-09-05T19:53:31.025Z,18.72
2022-09-05T19:56:06.836Z,18.59
2022-09-05T19:58:35.985Z,18.58
2022-09-05T20:01:13.791Z,18.54
2022-09-05T20:03:46.255Z,18.58
2022-09-05T20:06:29.152Z,18.55
2022-09-05T20:09:11.302Z,18.64
2022-09-05T20:11:45.593Z,18.43
2022-09-05T20:14:21.480Z,18.45
2022-09-05T20:16:53.894Z,18.45
2022-09-05T20:19:30.862Z,18.41
2022-09-05T20:22:14.328Z,18.32
2022-09-05T20:24:54.197Z,18.26
2022-09-05T20:27:28.628Z,18.21
2022-09-05T20:30:00.923Z,18.31
2022-09-05T20:32:38.723Z,18.31
2022-09-05T20:38:17.745Z,18.15
2022-09-05T20:43:22.127Z,18.07
2022-09-05T20:43:22.837Z,18.26
2022-09-05T20:44:17.353Z,17.90
2022-09-05T20:51:19.907Z,17.86
2022-09-05T20:54:20.955Z,17.73
2022-09-05T20:54:22.586Z,17.86
2022-09-05T20:55:41.430Z,17.83
2022-09-05T20:58:14.850Z,17.85
2022-09-05T21:01:21.947Z,17.79
2022-09-05T21:03:40.954Z,17.66
2022-09-05T21:06:23.529Z,17.63
2022-09-05T21:08:55.348Z,17.71
2022-09-05T21:11:32.465Z,17.63
2022-09-05T21:14:04.615Z,17.67
2022-09-05T21:16:36.529Z,17.58
2022-09-05T21:19:05.857Z,17.46
2022-09-05T21:21:36.780Z,17.35
2022-09-05T21:24:17.414Z,17.23
2022-09-05T21:26:51.444Z,17.33
2022-09-05T21:29:27.347Z,17.22
2022-09-05T21:32:10.367Z,17.18
2022-09-05T21:34:45.398Z,17.10
2022-09-05T21:37:17.694Z,17.06
2022-09-05T21:39:59.068Z,16.98
2022-09-05T21:44:54.176Z,16.94
2022-09-05T21:47:41.739Z,17.00
2022-09-05T21:48:15.127Z,16.91
2022-09-05T21:50:47.923Z,16.85
2022-09-05T21:58:56.638Z,16.75
2022-09-05T21:59:29.710Z,16.72
2022-09-05T21:59:30.191Z,16.63
2022-09-05T22:01:59.906Z,16.52
2022-09-05T22:04:29.390Z,16.56
2022-09-05T22:07:03.722Z,16.60
2022-09-05T22:09:34.185Z,16.43
2022-09-05T22:12:06.101Z,16.37
2022-09-05T22:14:46.939Z,16.42
2022-09-05T22:17:17.272Z,16.37
2022-09-05T22:19:46.939Z,16.31
2022-09-05T22:22:17.584Z,16.24
2022-09-05T22:25:00.168Z,16.18
2022-09-05T22:27:31.822Z,16.39
2022-09-05T22:30:01.863Z,16.31
2022-09-05T22:32:34.279Z,16.13
2022-09-05T22:35:17.857Z,16.20
2022-09-05T22:38:10.404Z,16.20
2022-09-05T22:40:42.724Z,16.13
2022-09-05T22:43:12.597Z,16.10
2022-09-05T22:45:41.860Z,16.08
2022-09-05T22:48:12.743Z,16.09
2022-09-05T22:50:43.322Z,16.00
2022-09-05T22:53:12.458Z,15.97
2022-09-05T22:55:44.206Z,15.97
2022-09-05T22:58:15.680Z,15.97
2022-09-05T23:00:45.045Z,15.90
2022-09-05T23:03:14.232Z,15.84
2022-09-05T23:05:43.362Z,15.83
2022-09-05T23:08:12.861Z,15.89
2022-09-05T23:10:43.208Z,15.84
2022-09-05T23:13:12.708Z,15.82
2022-09-05T23:15:41.785Z,15.69
2022-09-05T23:18:10.893Z,15.76
2022-09-05T23:20:40.059Z,15.72
2022-09-05T23:23:09.579Z,15.68
2022-09-05T23:25:38.571Z,15.52
2022-09-05T23:28:10.318Z,15.71
2022-09-05T23:30:40.294Z,15.67
2022-09-05T23:33:10.805Z,15.61
2022-09-05T23:35:39.885Z,15.51
2022-09-05T23:38:11.135Z,15.51
2022-09-05T23:40:40.434Z,15.63
2022-09-05T23:43:10.780Z,15.57
2022-09-05T23:45:39.742Z,15.48
2022-09-05T23:48:08.781Z,15.40
2022-09-05T23:50:37.736Z,15.27
2022-09-05T23:53:06.744Z,15.28
2022-09-05T23:55:36.652Z,15.46
2022-09-05T23:58:05.712Z,15.45
